Ana Sayfa
METAR-TAF:

METAR-TAF

Havaalanları :

Beslan Havalimanı

Vladikavkaz, Rusya

Enlem: 43-12-18N, Boylam: 044-36-24E, yükseklik: 510 m

Güncel hava durumu gözlemi

Rapor saat 05:30 UTC de 24 dakika önce yapıldı.
Rüzgar değişken yönden 2 kt
Sıcaklık 21°C
Nem 78%
Basınç 1014 hPa
Görüş mesafesi 10 km veya daha fazla

METAR: URMO 170530Z VRB01MPS 9999 NSC 21/17 Q1014 R09/010070 NOSIG RMK QFE717/0956

Saat: 08:54 (05:54 UTC)

Tahmin

Rapor saat 05:00 UTC de 54 dakika önce yapıldı.
Ayın 17'si saat 06 UTC'den ayın 17'si saat 15 UTC'ye kadar geçerli Tahmin
Rüzgar kuzeydoğudan 6 kt ve 16 kt'a kadar ani rüzgarlar
Görüş mesafesi 10 km veya daha fazla
3000 ft yükseklikte parçalı bulutlu
Geçici
ayın 17'si saat 06 UTC'den ayın 17'si saat 09 UTC'ye kadar
Rüzgar batıdan 6 kt ve 16 kt'a kadar ani rüzgarlar

TAF: URMO 170500Z 1706/1715 04003G08MPS 9999 SCT030 TEMPO 1706/1709 26003G08MPS

4.000'den fazla havaalanı için hava durumu gözlemleri ve tahminleri (METAR ve TAF raporları).

Kullanılabilir istasyonlar harita üzerinde sarı ve kırmızı noktalarla gösterilir.

İstasyonun adını görmek için fareyi noktanın üzerinde gezdirin.

Sonrasında hava gözlem ve tahminlerini görmek için tıklayın.

Haritayı değiştirmek için: yaklaştırmak için siyah artı işaretli yeşil düğmeye ve uzaklaştırmak için de eksi işaretli düğmeye hızla tıklayın; bitişik haritalar için yeşil okları kullanın.


METAR-TAF: